Maersk Bulan — 9V7693 — position and weather

sailwx.info

Track history (hours):
 
Tides and Currents Weather Stations Pressure Air Temp Water Temp Dewpoint Dewpoint Depression Visibility Wind Speed Wind Dir Waves Ship Positions

Maersk Bulan

Last reported at 2015-Mar-05 21:17 UTC. Time now 2015-Mar-06 12:37 UTC.
Position N 40°56' E 028°41'.

Length 223 m; draft 8.7 m.

Type: Ship (hazmat cat A). MMSI: 563455000.

Date/timePositionNaut miles runAvg speedWind from/ knotsBaromVisibWave heightAir tempDewpointWater temp
2015-Mar-05 21:17N 40°56' E 028°41'0 0.6
2015-Mar-05 20:31N 40°56' E 028°42'0 0.3
2015-Mar-05 19:30N 40°56' E 028°42'9 7.1
2015-Mar-05 18:16N 40°47' E 028°45'913.0
2015-Mar-05 17:33N 40°47' E 028°57'1514.9
2015-Mar-05 16:33N 40°45' E 029°16'1413.3
2015-Mar-05 15:31N 40°45' E 029°35'0 0.0
2015-Mar-04 17:20N 40°45' E 029°34'810.5
2015-Mar-04 16:33N 40°44' E 029°23'5 5.3
2015-Mar-04 15:33N 40°44' E 029°16'1 1.1
2015-Mar-04 14:33N 40°44' E 029°15'1010.0
2015-Mar-04 13:33N 40°47' E 029°02'0 0.3
2015-Mar-04 12:32N 40°47' E 029°02'1 0.6
2015-Mar-04 11:33N 40°47' E 029°03'1 0.7
2015-Mar-04 10:33N 40°47' E 029°04'8 7.8
2015-Mar-04 09:33N 40°44' E 028°54'1311.7
2015-Mar-04 08:28N 40°44' E 028°37'  
2015-Feb-26 17:26N 36°40' E 000°18'26813.5
2015-Feb-25 21:33N 36°05' W 005°12'1211.9
2015-Feb-25 20:33N 36°09' W 005°26'1 0.5
2015-Feb-25 19:29N 36°09' W 005°26'0 0.0
2015-Feb-25 18:32N 36°09' W 005°26'0 0.0
2015-Feb-25 17:29N 36°09' W 005°26'0 0.0
2015-Feb-25 16:32N 36°09' W 005°26'0 0.0
2015-Feb-25 15:32N 36°09' W 005°26'0 0.0
2015-Feb-25 14:32N 36°09' W 005°26'0 0.0
2015-Feb-25 13:32N 36°09' W 005°26'0 0.0
2015-Feb-25 12:32N 36°09' W 005°26'0 0.0
2015-Feb-25 11:20N 36°09' W 005°26'0 0.0
2015-Feb-25 10:23N 36°09' W 005°26'0 0.0
2015-Feb-25 09:32N 36°09' W 005°26'0 0.0
2015-Feb-25 08:14N 36°09' W 005°26'0 0.0
2015-Feb-25 07:17N 36°09' W 005°26'0 0.0
2015-Feb-25 06:33N 36°09' W 005°26'2 2.4
2015-Feb-25 05:34N 36°08' W 005°23'1110.6
2015-Feb-25 04:33N 35°58' W 005°27'  
Track history (hours):
 
Tides and Currents Weather Stations Pressure Air Temp Water Temp Dewpoint Dewpoint Depression Visibility Wind Speed Wind Dir Waves Ship Positions

Maersk Bulan

Last reported at 2015-Mar-05 21:17 UTC. Time now 2015-Mar-06 12:37 UTC.
Position N 40°56' E 028°41'.

Length 223 m; draft 8.7 m.

Type: Ship (hazmat cat A). MMSI: 563455000.

Date/timePositionNaut miles runAvg speedWind from/ knotsBaromVisibWave heightAir tempDewpointWater temp
2015-Mar-05 21:17N 40°56' E 028°41'0 0.6
2015-Mar-05 20:31N 40°56' E 028°42'0 0.3
2015-Mar-05 19:30N 40°56' E 028°42'9 7.1
2015-Mar-05 18:16N 40°47' E 028°45'913.0
2015-Mar-05 17:33N 40°47' E 028°57'1514.9
2015-Mar-05 16:33N 40°45' E 029°16'1413.3
2015-Mar-05 15:31N 40°45' E 029°35'0 0.0
2015-Mar-04 17:20N 40°45' E 029°34'810.5
2015-Mar-04 16:33N 40°44' E 029°23'5 5.3
2015-Mar-04 15:33N 40°44' E 029°16'1 1.1
2015-Mar-04 14:33N 40°44' E 029°15'1010.0
2015-Mar-04 13:33N 40°47' E 029°02'0 0.3
2015-Mar-04 12:32N 40°47' E 029°02'1 0.6
2015-Mar-04 11:33N 40°47' E 029°03'1 0.7
2015-Mar-04 10:33N 40°47' E 029°04'8 7.8
2015-Mar-04 09:33N 40°44' E 028°54'1311.7
2015-Mar-04 08:28N 40°44' E 028°37'  
2015-Feb-26 17:26N 36°40' E 000°18'26813.5
2015-Feb-25 21:33N 36°05' W 005°12'1211.9
2015-Feb-25 20:33N 36°09' W 005°26'1 0.5
2015-Feb-25 19:29N 36°09' W 005°26'0 0.0
2015-Feb-25 18:32N 36°09' W 005°26'0 0.0
2015-Feb-25 17:29N 36°09' W 005°26'0 0.0
2015-Feb-25 16:32N 36°09' W 005°26'0 0.0
2015-Feb-25 15:32N 36°09' W 005°26'0 0.0
2015-Feb-25 14:32N 36°09' W 005°26'0 0.0
2015-Feb-25 13:32N 36°09' W 005°26'0 0.0
2015-Feb-25 12:32N 36°09' W 005°26'0 0.0
2015-Feb-25 11:20N 36°09' W 005°26'0 0.0
2015-Feb-25 10:23N 36°09' W 005°26'0 0.0
2015-Feb-25 09:32N 36°09' W 005°26'0 0.0
2015-Feb-25 08:14N 36°09' W 005°26'0 0.0
2015-Feb-25 07:17N 36°09' W 005°26'0 0.0
2015-Feb-25 06:33N 36°09' W 005°26'2 2.4
2015-Feb-25 05:34N 36°08' W 005°23'1110.6
2015-Feb-25 04:33N 35°58' W 005°27'  

Dump ship's entire track history